Time;durP1;ratioP1;P1;durP2;ratioP2;P2;SDS_P1;SDS_P2;PMS_P1;PMS_P2;Temp;Humidity;BMP_temperature;BMP_pressure;BME280_temperature;BME280_humidity;BME280_pressure;Samples;Min_cycle;Max_cycle;Signal;HPM_P1;HPM_P2
2021/08/14 00:00:31;;;;;;;4.90;2.27;;;;;;;21.15;74.32;101520.75;5073092;28;20480;-72
2021/08/14 00:02:58;;;;;;;4.00;2.33;;;;;;;21.13;76.15;101525.81;5072846;28;20484;-72
2021/08/14 00:05:24;;;;;;;3.30;2.23;;;;;;;21.03;75.21;101523.53;5072686;28;20444;-72
2021/08/14 00:07:51;;;;;;;2.37;2.00;;;;;;;21.02;77.64;101519.19;5072951;28;20445;-72
2021/08/14 00:10:17;;;;;;;3.50;2.50;;;;;;;20.95;77.94;101521.75;5072944;28;20520;-71
2021/08/14 00:12:45;;;;;;;4.07;2.60;;;;;;;20.85;78.29;101525.75;5072527;28;20820;-72
2021/08/14 00:15:12;;;;;;;3.70;2.50;;;;;;;20.82;79.20;101527.28;5072869;28;20461;-71
2021/08/14 00:17:39;;;;;;;4.47;2.70;;;;;;;20.73;79.07;101529.34;5072843;28;20445;-71
2021/08/14 00:20:06;;;;;;;6.27;3.10;;;;;;;20.73;79.65;101523.06;5072517;28;20942;-71
2021/08/14 00:22:33;;;;;;;2.57;2.00;;;;;;;20.70;78.54;101530.03;5072710;28;20823;-70
2021/08/14 00:24:59;;;;;;;4.30;2.87;;;;;;;20.67;79.06;101530.72;5072450;28;20961;-70
2021/08/14 00:27:26;;;;;;;4.43;2.53;;;;;;;20.60;79.48;101527.78;5072734;28;20437;-70
2021/08/14 00:29:53;;;;;;;4.40;3.03;;;;;;;20.58;79.78;101527.28;5072749;28;20445;-70
2021/08/14 00:32:20;;;;;;;5.03;2.13;;;;;;;20.58;79.61;101527.28;5074850;28;20465;-70
2021/08/14 00:34:46;;;;;;;4.23;2.93;;;;;;;20.51;79.64;101521.59;5076495;28;20445;-70
2021/08/14 00:37:13;;;;;;;4.23;2.73;;;;;;;20.49;79.87;101534.88;5076104;28;20491;-70
2021/08/14 00:39:39;;;;;;;4.40;2.60;;;;;;;20.46;80.46;101535.56;5076390;28;20498;-70
2021/08/14 00:42:06;;;;;;;3.37;2.40;;;;;;;20.44;80.95;101537.84;5076304;28;20884;-70
2021/08/14 00:44:33;;;;;;;3.17;2.33;;;;;;;20.39;81.26;101539.66;5075932;28;20485;-70
2021/08/14 00:47:03;;;;;;;4.67;3.10;;;;;;;20.35;81.19;101541.50;5076236;28;20437;-70
2021/08/14 00:49:30;;;;;;;3.77;2.10;;;;;;;20.31;80.47;101546.09;5076094;28;20437;-70
2021/08/14 00:51:56;;;;;;;3.97;2.67;;;;;;;20.27;80.44;101536.91;5075778;28;20518;-70
2021/08/14 00:54:23;;;;;;;4.13;2.50;;;;;;;20.23;81.04;101538.78;5076148;28;20441;-70
2021/08/14 00:56:49;;;;;;;2.83;2.30;;;;;;;20.23;81.04;101535.19;5076100;28;20453;-70
2021/08/14 00:59:16;;;;;;;3.30;2.83;;;;;;;20.17;81.43;101534.63;5076081;28;20445;-70
2021/08/14 01:01:42;;;;;;;5.20;2.93;;;;;;;20.13;81.51;101536.44;5075959;28;20468;-70
2021/08/14 01:04:11;;;;;;;3.97;2.27;;;;;;;20.10;80.92;101529.69;5075864;28;20476;-70
2021/08/14 01:06:37;;;;;;;4.57;2.47;;;;;;;20.04;82.25;101535.75;5075923;28;20456;-70
2021/08/14 01:09:04;;;;;;;4.50;2.67;;;;;;;20.00;82.20;101534.81;5075874;28;20445;-70
2021/08/14 01:11:30;;;;;;;4.73;2.50;;;;;;;19.96;83.37;101534.69;5075738;28;20448;-70
2021/08/14 01:13:58;;;;;;;6.67;3.07;;;;;;;19.88;83.94;101530.94;5075762;28;20441;-70
2021/08/14 01:16:26;;;;;;;4.47;2.17;;;;;;;19.81;83.92;101544.41;5075747;28;20437;-71
2021/08/14 01:18:52;;;;;;;3.73;2.40;;;;;;;19.77;84.74;101545.44;5075678;28;20452;-70
2021/08/14 01:21:21;;;;;;;3.83;3.07;;;;;;;19.74;85.40;101538.66;5075671;28;20441;-71
2021/08/14 01:23:50;;;;;;;3.43;2.57;;;;;;;19.67;85.29;101541.19;5075238;28;20883;-71
2021/08/14 01:26:17;;;;;;;3.87;2.70;;;;;;;19.62;86.93;101541.41;5075605;28;20862;-71
2021/08/14 01:28:45;;;;;;;4.90;2.43;;;;;;;19.57;86.88;101541.59;5075227;28;20966;-71
2021/08/14 01:31:14;;;;;;;4.27;2.77;;;;;;;19.47;87.81;101550.22;5082129;28;20461;-71
2021/08/14 01:33:42;;;;;;;7.40;3.03;;;;;;;19.40;87.12;101550.78;5075376;28;20453;-71
2021/08/14 01:36:10;;;;;;;4.60;2.37;;;;;;;19.38;87.22;101559.34;5079545;28;20456;-71
2021/08/14 01:38:45;;;;;;;4.37;2.77;;;;;;;19.29;86.92;101553.13;5095578;28;20558;-71
2021/08/14 01:41:11;;;;;;;4.67;2.70;;;;;;;19.27;87.48;101547.19;5095604;28;20444;-71
2021/08/14 01:43:52;;;;;;;3.87;2.00;;;;;;;19.22;87.98;101550.13;5094879;28;20506;-71
2021/08/14 01:46:18;;;;;;;3.90;2.47;;;;;;;19.16;88.25;101537.72;5078280;28;20468;-71
2021/08/14 01:48:45;;;;;;;6.07;3.33;;;;;;;19.09;87.60;101545.72;5075196;28;20441;-71
2021/08/14 01:51:11;;;;;;;4.90;2.33;;;;;;;19.01;88.26;101554.81;5075115;28;20449;-71
2021/08/14 01:53:38;;;;;;;3.33;2.10;;;;;;;18.93;87.26;101545.50;5074941;28;20461;-71
2021/08/14 01:56:04;;;;;;;3.13;2.40;;;;;;;18.85;86.90;101549.91;5074987;28;20853;-71
2021/08/14 01:58:31;;;;;;;6.00;3.60;;;;;;;18.76;87.97;101549.16;5074664;28;20930;-71
2021/08/14 02:00:59;;;;;;;3.50;2.13;;;;;;;18.67;88.79;101545.66;5074840;28;20441;-71
2021/08/14 02:03:25;;;;;;;3.30;2.30;;;;;;;18.63;90.06;101544.69;5074729;28;20465;-71
2021/08/14 02:05:52;;;;;;;5.63;4.07;;;;;;;18.60;90.60;101545.38;5074815;28;20803;-71
2021/08/14 02:08:18;;;;;;;4.83;2.90;;;;;;;18.58;90.48;101544.91;5074725;28;20434;-71
2021/08/14 02:10:44;;;;;;;4.10;2.60;;;;;;;18.55;91.11;101538.16;5074689;28;20445;-71
2021/08/14 02:13:11;;;;;;;5.33;3.17;;;;;;;18.54;91.19;101542.00;5074546;28;20480;-71
2021/08/14 02:15:37;;;;;;;3.10;2.80;;;;;;;18.50;91.17;101540.25;5074296;28;20822;-71
2021/08/14 02:18:05;;;;;;;4.93;2.77;;;;;;;18.52;91.93;101548.97;5074543;28;20437;-71
2021/08/14 02:20:31;;;;;;;3.37;2.30;;;;;;;18.50;92.17;101540.25;5074459;28;20444;-71
2021/08/14 02:22:58;;;;;;;5.53;2.90;;;;;;;18.52;91.74;101547.03;5074356;28;20494;-71
2021/08/14 02:25:24;;;;;;;4.60;2.70;;;;;;;18.56;91.88;101549.91;5074509;28;20481;-71
2021/08/14 02:27:51;;;;;;;8.80;3.20;;;;;;;18.57;91.92;101548.78;5094532;28;20440;-71
2021/08/14 02:30:17;;;;;;;4.60;2.23;;;;;;;18.51;92.33;101558.34;5094612;28;20437;-71
2021/08/14 02:32:44;;;;;;;5.87;3.17;;;;;;;18.49;92.96;101555.91;5094094;28;20480;-71
2021/08/14 02:35:11;;;;;;;3.33;2.30;;;;;;;18.47;91.95;101557.41;5094458;28;20499;-72
2021/08/14 02:37:38;;;;;;;6.37;3.50;;;;;;;18.48;92.03;101559.81;5094445;28;20437;-72
2021/08/14 02:40:05;;;;;;;4.07;2.33;;;;;;;18.51;92.22;101564.63;5094369;28;20467;-72
2021/08/14 02:42:32;;;;;;;4.30;2.70;;;;;;;18.56;91.90;101563.66;5094252;28;20471;-72
2021/08/14 02:44:59;;;;;;;5.63;3.17;;;;;;;18.58;91.72;101555.88;5093927;28;21068;-72
2021/08/14 02:47:25;;;;;;;4.43;2.83;;;;;;;18.59;91.66;101550.06;5094183;28;20444;-72
2021/08/14 02:49:51;;;;;;;3.37;2.40;;;;;;;18.58;90.96;101561.34;5094201;28;20440;-72
2021/08/14 02:52:19;;;;;;;2.63;1.90;;;;;;;18.59;90.93;101549.25;5093761;28;20977;-72
2021/08/14 02:54:45;;;;;;;7.50;2.70;;;;;;;18.58;90.95;101547.63;5093334;28;20440;-72
2021/08/14 02:57:12;;;;;;;5.80;2.70;;;;;;;18.55;91.25;101559.25;5094067;28;20514;-72
2021/08/14 02:59:38;;;;;;;5.00;2.97;;;;;;;18.60;91.10;101551.66;5094057;28;20441;-72
2021/08/14 03:02:05;;;;;;;8.07;3.23;;;;;;;18.63;90.87;101550.97;5093882;28;20461;-72
2021/08/14 03:04:31;;;;;;;4.43;2.33;;;;;;;18.62;90.94;101549.38;5093840;28;20842;-72
2021/08/14 03:06:58;;;;;;;4.47;2.90;;;;;;;18.63;90.69;101548.25;5093600;28;20444;-72
2021/08/14 03:09:25;;;;;;;4.33;2.20;;;;;;;18.60;91.11;101545.38;5093868;28;20825;-72
2021/08/14 03:11:52;;;;;;;3.33;1.90;;;;;;;18.57;91.58;101551.53;5093703;28;20456;-72
2021/08/14 03:14:18;;;;;;;4.23;2.63;;;;;;;18.57;91.65;101548.78;5093462;28;20440;-72
2021/08/14 03:16:45;;;;;;;5.27;2.70;;;;;;;18.60;91.28;101551.66;5093448;28;20812;-71
2021/08/14 03:19:11;;;;;;;4.53;3.60;;;;;;;18.56;91.46;101549.91;5093697;28;20436;-70
2021/08/14 03:21:38;;;;;;;3.43;1.90;;;;;;;18.59;91.62;101555.56;5093658;28;20437;-70
2021/08/14 03:24:05;;;;;;;5.87;3.20;;;;;;;18.61;90.95;101563.44;5093512;28;20907;-70
2021/08/14 03:26:32;;;;;;;4.90;2.73;;;;;;;18.61;91.15;101557.97;5093646;28;20436;-70
2021/08/14 03:28:59;;;;;;;2.60;1.83;;;;;;;18.62;91.31;101554.06;5093281;28;20436;-70
2021/08/14 03:31:25;;;;;;;4.23;2.30;;;;;;;18.56;91.55;101555.41;5100177;28;20456;-70
2021/08/14 03:33:52;;;;;;;3.43;2.43;;;;;;;18.57;91.53;101546.03;5093588;28;20432;-70
2021/08/14 03:36:20;;;;;;;3.40;2.20;;;;;;;18.61;91.58;101555.22;5093465;28;20444;-70
2021/08/14 03:38:46;;;;;;;4.43;2.90;;;;;;;18.57;92.17;101557.00;5093500;28;20443;-70
2021/08/14 03:41:13;;;;;;;4.63;2.53;;;;;;;18.53;92.44;101556.06;5093457;28;20447;-71
2021/08/14 03:43:41;;;;;;;4.73;2.60;;;;;;;18.54;92.66;101554.91;5093326;28;20463;-71
2021/08/14 03:46:07;;;;;;;4.07;2.63;;;;;;;18.59;91.96;101554.72;5093064;28;20440;-70
2021/08/14 03:48:34;;;;;;;4.10;2.30;;;;;;;18.60;92.37;101556.34;5093394;28;20448;-71
2021/08/14 03:51:01;;;;;;;2.90;2.10;;;;;;;18.62;91.98;101552.13;5093373;28;20444;-72
2021/08/14 03:53:27;;;;;;;5.63;2.83;;;;;;;18.61;92.22;101563.44;5093283;28;20456;-71
2021/08/14 03:55:54;;;;;;;4.20;1.97;;;;;;;18.61;92.14;101566.19;5093686;28;20440;-73
2021/08/14 03:58:20;;;;;;;5.40;2.23;;;;;;;18.58;92.37;101558.63;5093245;28;20444;-71
2021/08/14 04:00:48;;;;;;;3.07;2.00;;;;;;;18.58;92.70;101575.88;5093431;28;20443;-71
2021/08/14 04:03:14;;;;;;;7.17;2.90;;;;;;;18.54;92.51;101574.94;5094446;28;20471;-72
2021/08/14 04:05:41;;;;;;;5.40;2.50;;;;;;;18.55;91.36;101571.06;5094766;28;20829;-72
2021/08/14 04:08:07;;;;;;;4.80;2.57;;;;;;;18.51;91.89;101566.56;5097307;28;20436;-72
2021/08/14 04:10:34;;;;;;;5.20;3.33;;;;;;;18.52;91.88;101565.44;5097329;28;20819;-72
2021/08/14 04:13:00;;;;;;;4.63;3.17;;;;;;;18.56;92.45;101577.38;5091252;28;20481;-72
2021/08/14 04:15:29;;;;;;;3.13;2.13;;;;;;;18.54;92.34;101574.13;5076903;28;20444;-72
2021/08/14 04:17:56;;;;;;;7.20;2.63;;;;;;;18.47;92.71;101574.66;5076500;28;20946;-72
2021/08/14 04:20:23;;;;;;;3.90;2.80;;;;;;;18.44;92.79;101574.50;5076804;28;20441;-71
2021/08/14 04:22:49;;;;;;;5.80;2.77;;;;;;;18.39;92.35;101590.03;5076671;28;20456;-72
2021/08/14 04:25:16;;;;;;;4.77;3.37;;;;;;;18.33;91.73;101588.59;5076641;28;20890;-72
2021/08/14 04:27:42;;;;;;;3.67;2.93;;;;;;;18.27;92.51;101575.38;5076687;28;20452;-71
2021/08/14 04:30:10;;;;;;;8.40;3.30;;;;;;;18.21;93.29;101593.97;5076588;28;20441;-71
2021/08/14 04:32:37;;;;;;;6.80;3.13;;;;;;;18.12;92.92;101590.44;5076160;28;20473;-72
2021/08/14 04:35:08;;;;;;;9.03;3.20;;;;;;;18.09;93.13;101593.84;5076521;28;20441;-72
2021/08/14 04:37:34;;;;;;;5.20;3.50;;;;;;;18.05;93.30;101584.66;5076527;28;20449;-72
2021/08/14 04:40:01;;;;;;;5.03;3.53;;;;;;;18.01;90.75;101581.75;5076433;28;20448;-72
2021/08/14 04:42:28;;;;;;;7.10;3.80;;;;;;;17.92;90.70;101585.66;5076299;28;20453;-72
2021/08/14 04:44:54;;;;;;;7.77;3.90;;;;;;;17.94;89.99;101577.91;5076435;28;20485;-72
2021/08/14 04:47:21;;;;;;;4.70;2.60;;;;;;;17.90;90.33;101577.75;5076318;28;20441;-72
2021/08/14 04:49:47;;;;;;;8.63;4.03;;;;;;;17.96;90.85;101575.66;5076220;28;20437;-72
2021/08/14 04:52:15;;;;;;;4.33;3.00;;;;;;;17.95;92.50;101574.03;5076140;28;20461;-71
2021/08/14 04:54:42;;;;;;;5.47;3.67;;;;;;;18.04;93.55;101583.03;5076156;28;20433;-71
2021/08/14 04:57:08;;;;;;;6.33;3.37;;;;;;;18.02;94.62;101577.91;5076107;28;20445;-71
2021/08/14 04:59:35;;;;;;;8.10;3.33;;;;;;;18.04;95.02;101583.84;5076112;28;20441;-71
2021/08/14 05:02:03;;;;;;;7.63;3.33;;;;;;;18.08;95.01;101581.25;5075633;28;20973;-71
2021/08/14 05:04:30;;;;;;;5.17;3.10;;;;;;;18.07;95.15;101582.41;5075953;28;20472;-71
2021/08/14 05:06:56;;;;;;;8.97;3.57;;;;;;;18.11;94.99;101578.69;5075928;28;20437;-71
2021/08/14 05:09:24;;;;;;;5.10;2.63;;;;;;;18.08;95.62;101565.63;5075907;28;20449;-71
2021/08/14 05:11:50;;;;;;;8.13;3.40;;;;;;;18.10;96.51;101577.03;5075779;28;20461;-71
2021/08/14 05:14:17;;;;;;;4.83;2.80;;;;;;;18.11;96.54;101567.72;5075793;28;20444;-71
2021/08/14 05:16:43;;;;;;;5.43;2.40;;;;;;;18.25;96.10;101566.69;5074701;28;20946;-71
2021/08/14 05:19:09;;;;;;;2.83;2.27;;;;;;;18.32;96.04;101577.94;5075679;28;20441;-71
2021/08/14 05:21:36;;;;;;;4.20;2.03;;;;;;;18.37;96.57;101564.88;5075646;28;20449;-71
2021/08/14 05:24:04;;;;;;;8.30;3.00;;;;;;;18.44;96.82;101564.34;5075664;28;20445;-71
2021/08/14 05:26:32;;;;;;;3.13;2.60;;;;;;;18.49;93.73;101566.09;5075532;28;20481;-71
2021/08/14 05:28:59;;;;;;;8.93;2.37;;;;;;;18.56;93.75;101566.38;5082111;28;20422;-71
2021/08/14 05:31:25;;;;;;;3.80;2.43;;;;;;;18.57;91.82;101573.47;5075507;28;20502;-72
2021/08/14 05:33:51;;;;;;;8.03;2.47;;;;;;;18.63;90.76;101583.13;5075356;28;20444;-72
2021/08/14 05:36:18;;;;;;;6.17;3.17;;;;;;;18.61;88.71;101590.91;5075167;28;20953;-71
2021/08/14 05:38:44;;;;;;;5.80;2.80;;;;;;;18.71;88.80;101595.22;5075389;28;20860;-72
2021/08/14 05:41:11;;;;;;;4.80;2.97;;;;;;;18.82;87.57;101590.97;5075303;28;20448;-72
2021/08/14 05:43:39;;;;;;;8.60;3.47;;;;;;;18.84;86.24;101586.75;5075623;28;20461;-72
2021/08/14 05:46:05;;;;;;;6.37;2.90;;;;;;;18.93;84.90;101585.91;5095344;28;20484;-72
2021/08/14 05:48:31;;;;;;;7.60;2.60;;;;;;;18.99;85.43;101601.03;5095450;28;20444;-71
2021/08/14 05:50:58;;;;;;;3.40;2.30;;;;;;;19.07;85.46;101602.91;5095301;28;20443;-71
2021/08/14 05:53:24;;;;;;;6.00;2.90;;;;;;;19.12;86.45;101608.19;5094907;28;20879;-71
2021/08/14 05:55:51;;;;;;;5.17;3.30;;;;;;;19.19;85.31;101616.72;5095297;28;20448;-72
2021/08/14 05:58:17;;;;;;;4.43;2.47;;;;;;;19.30;82.99;101617.94;5095294;28;20445;-71
2021/08/14 06:00:45;;;;;;;3.63;1.80;;;;;;;19.42;83.48;101603.47;5095115;28;20440;-72
2021/08/14 06:03:11;;;;;;;6.83;1.97;;;;;;;19.49;83.10;101606.47;5095071;28;20460;-72
2021/08/14 06:05:38;;;;;;;8.37;3.00;;;;;;;19.55;82.03;101602.38;5094979;28;20480;-72
2021/08/14 06:08:05;;;;;;;4.60;2.50;;;;;;;19.66;81.60;101600.06;5094906;28;20440;-72
2021/08/14 06:10:32;;;;;;;3.20;2.23;;;;;;;19.78;81.19;101596.53;5095008;28;20444;-72
2021/08/14 06:12:58;;;;;;;5.07;2.80;;;;;;;19.88;80.58;101605.19;5094844;28;20468;-72
2021/08/14 06:15:25;;;;;;;8.97;3.03;;;;;;;19.93;80.43;101606.09;5077463;28;20503;-72
2021/08/14 06:17:53;;;;;;;5.50;2.80;;;;;;;19.93;81.56;101604.16;5074662;28;20445;-72
2021/08/14 06:20:19;;;;;;;8.17;2.90;;;;;;;19.93;81.63;101606.09;5074500;28;20549;-72
2021/08/14 06:22:46;;;;;;;7.07;2.23;;;;;;;20.00;81.42;101606.34;5074470;28;20465;-72
2021/08/14 06:25:13;;;;;;;9.17;2.53;;;;;;;20.06;81.26;101596.75;5074369;28;20485;-71
2021/08/14 06:27:40;;;;;;;8.13;2.43;;;;;;;20.09;80.61;101596.03;5083622;28;20456;-72
2021/08/14 06:30:08;;;;;;;6.40;2.43;;;;;;;20.08;80.48;101602.69;5094267;28;20992;-72
2021/08/14 06:32:35;;;;;;;3.67;1.97;;;;;;;20.13;80.99;101602.47;5094117;28;20476;-71
2021/08/14 06:35:03;;;;;;;2.63;1.87;;;;;;;20.21;81.22;101598.81;5094481;28;20437;-72
2021/08/14 06:37:30;;;;;;;8.40;2.50;;;;;;;20.30;81.11;101601.47;5094097;28;20853;-71
2021/08/14 06:39:56;;;;;;;5.23;1.90;;;;;;;20.32;79.43;101600.00;5094334;28;20432;-71
2021/08/14 06:42:23;;;;;;;4.53;2.47;;;;;;;20.36;79.96;101598.16;5094213;28;20464;-71
2021/08/14 06:44:49;;;;;;;4.67;2.30;;;;;;;20.37;79.32;101597.00;5094243;28;20853;-71
2021/08/14 06:47:15;;;;;;;5.07;2.67;;;;;;;20.49;79.04;101600.94;5094245;28;20447;-71
2021/08/14 06:49:42;;;;;;;4.97;2.03;;;;;;;20.57;77.14;101597.28;5094257;28;20449;-71
2021/08/14 06:52:09;;;;;;;5.40;2.30;;;;;;;20.61;77.49;101595.44;5093787;28;21007;-71
2021/08/14 06:54:36;;;;;;;4.73;2.60;;;;;;;20.63;76.53;101602.22;5094135;28;20436;-71
2021/08/14 06:57:02;;;;;;;3.43;2.13;;;;;;;20.72;77.79;101599.34;5094099;28;20445;-71
2021/08/14 06:59:29;;;;;;;3.03;2.10;;;;;;;20.80;77.59;101605.88;5094054;28;20441;-70
2021/08/14 07:01:55;;;;;;;4.33;1.90;;;;;;;20.85;74.92;101600.94;5093584;28;20876;-71
2021/08/14 07:04:22;;;;;;;2.47;1.90;;;;;;;20.90;75.08;101595.19;5093946;28;20441;-71
2021/08/14 07:06:48;;;;;;;2.77;1.70;;;;;;;20.95;75.15;101602.41;5093918;28;20833;-72
2021/08/14 07:09:16;;;;;;;3.20;2.17;;;;;;;20.92;76.89;101603.91;5093919;28;20494;-73
2021/08/14 07:11:45;;;;;;;1.87;1.40;;;;;;;20.92;75.47;101603.09;5093725;28;20444;-73
2021/08/14 07:14:11;;;;;;;3.60;1.80;;;;;;;20.93;75.74;101601.94;5093774;28;20441;-73
2021/08/14 07:16:38;;;;;;;11.40;2.03;;;;;;;20.98;75.80;101600.91;5093790;28;20444;-73
2021/08/14 07:19:04;;;;;;;7.87;1.50;;;;;;;21.03;74.74;101597.91;5093707;28;20444;-73
2021/08/14 07:21:31;;;;;;;3.47;2.03;;;;;;;21.04;74.20;101611.34;5093669;28;20440;-73
2021/08/14 07:23:57;;;;;;;5.73;1.97;;;;;;;21.06;73.87;101609.03;5093679;28;20441;-73
2021/08/14 07:26:25;;;;;;;2.57;1.37;;;;;;;21.00;74.43;101604.94;5093385;28;20487;-73
2021/08/14 07:28:51;;;;;;;4.43;1.93;;;;;;;21.01;76.14;101611.25;5100782;28;20417;-73
2021/08/14 07:31:18;;;;;;;2.40;2.20;;;;;;;21.04;75.45;101613.31;5094229;28;20452;-73
2021/08/14 07:33:44;;;;;;;3.20;1.60;;;;;;;21.06;76.41;101613.75;5093136;28;21001;-73
2021/08/14 07:36:12;;;;;;;2.30;1.30;;;;;;;21.11;75.53;101608.81;5093514;28;20436;-73
2021/08/14 07:38:38;;;;;;;8.83;1.67;;;;;;;21.23;74.84;101610.72;5093472;28;20440;-73
2021/08/14 07:41:04;;;;;;;6.03;2.03;;;;;;;21.31;74.42;101604.31;5093005;28;20440;-73
2021/08/14 07:43:32;;;;;;;4.17;1.70;;;;;;;21.24;73.15;101604.06;5093353;28;20813;-73
2021/08/14 07:45:59;;;;;;;7.03;1.70;;;;;;;21.37;73.75;101608.44;5093337;28;20487;-73
2021/08/14 07:48:25;;;;;;;3.87;1.30;;;;;;;21.49;72.46;101604.03;5093373;28;20456;-73
2021/08/14 07:50:52;;;;;;;1.57;1.20;;;;;;;21.46;72.66;101597.25;5093362;28;20443;-73
2021/08/14 07:53:18;;;;;;;2.30;1.13;;;;;;;21.58;72.33;101605.50;5093267;28;20456;-73
2021/08/14 07:55:44;;;;;;;4.37;1.70;;;;;;;21.70;71.76;101598.31;5093033;28;20928;-73
2021/08/14 07:58:12;;;;;;;4.53;1.63;;;;;;;21.72;70.27;101602.31;5093292;28;20440;-74
2021/08/14 08:00:40;;;;;;;2.00;1.60;;;;;;;21.65;70.07;101600.19;5093283;28;20493;-73
2021/08/14 08:03:07;;;;;;;4.20;2.10;;;;;;;21.70;71.82;101601.88;5093120;28;20492;-73
2021/08/14 08:05:33;;;;;;;6.67;2.20;;;;;;;21.77;70.04;101609.53;5093135;28;20479;-73
2021/08/14 08:08:02;;;;;;;2.90;1.30;;;;;;;21.84;69.01;101604.22;5093170;28;20448;-73
2021/08/14 08:10:28;;;;;;;3.03;1.67;;;;;;;21.87;68.27;101603.53;5093220;28;20441;-73
2021/08/14 08:12:54;;;;;;;4.90;1.10;;;;;;;21.90;69.21;101598.09;5093084;28;20469;-73
2021/08/14 08:15:21;;;;;;;7.57;1.90;;;;;;;21.85;69.08;101592.81;5093194;28;20440;-73
2021/08/14 08:17:49;;;;;;;5.67;1.73;;;;;;;22.00;70.21;101585.75;5092802;28;20964;-73
2021/08/14 08:20:18;;;;;;;3.80;1.20;;;;;;;22.03;69.65;101576.75;5092756;28;20968;-73
2021/08/14 08:22:44;;;;;;;9.50;1.60;;;;;;;22.15;70.00;101582.22;5093009;28;20467;-73
2021/08/14 08:25:12;;;;;;;2.80;1.80;;;;;;;22.26;67.68;101571.44;5092951;28;20444;-73
2021/08/14 08:27:39;;;;;;;15.33;1.43;;;;;;;22.44;68.30;101563.59;5093043;28;20448;-73
2021/08/14 08:30:07;;;;;;;4.83;1.73;;;;;;;22.55;66.51;101564.66;5092825;28;20929;-73
2021/08/14 08:32:34;;;;;;;3.57;1.57;;;;;;;22.61;68.87;101565.97;5092563;28;20484;-73
2021/08/14 08:35:01;;;;;;;1.53;1.20;;;;;;;22.72;65.69;101555.19;5092958;28;20440;-73
2021/08/14 08:37:28;;;;;;;2.20;1.30;;;;;;;22.89;65.31;101548.47;5092955;28;20436;-73
2021/08/14 08:39:54;;;;;;;2.70;1.53;;;;;;;23.09;64.16;101560.34;5092920;28;20476;-73
2021/08/14 08:42:21;;;;;;;4.17;1.83;;;;;;;23.23;61.12;101557.88;5092808;28;20464;-73
2021/08/14 08:44:47;;;;;;;17.57;1.80;;;;;;;23.28;60.67;101554.03;5092866;28;20445;-73
2021/08/14 08:47:15;;;;;;;2.07;1.40;;;;;;;23.34;62.28;101545.09;5092773;28;20506;-73
2021/08/14 08:49:52;;;;;;;2.70;1.23;;;;;;;23.41;60.07;101553.50;5093294;28;20437;-73
2021/08/14 08:52:20;;;;;;;2.97;1.50;;;;;;;23.44;60.01;101549.22;5093600;28;20483;-73
2021/08/14 08:54:47;;;;;;;3.37;1.50;;;;;;;23.46;60.42;101557.13;5096629;28;20436;-73
2021/08/14 08:57:14;;;;;;;3.07;1.00;;;;;;;23.53;61.47;101551.75;5096123;28;20447;-73
2021/08/14 08:59:40;;;;;;;3.50;1.50;;;;;;;23.56;58.92;101551.03;5096357;28;20449;-73
2021/08/14 09:02:21;;;;;;;3.90;1.20;;;;;;;23.65;60.66;101551.63;5095890;28;20460;-72
2021/08/14 09:04:47;;;;;;;8.60;1.43;;;;;;;23.63;56.47;101559.44;5096203;28;20420;-73
2021/08/14 09:07:28;;;;;;;4.90;1.90;;;;;;;23.44;55.39;101553.94;5096048;28;20480;-73
2021/08/14 09:09:57;;;;;;;4.87;1.67;;;;;;;23.38;55.61;101547.94;5096123;28;20463;-72
2021/08/14 09:12:29;;;;;;;4.50;1.37;;;;;;;23.34;56.66;101547.06;5096052;28;20468;-73
2021/08/14 09:14:56;;;;;;;3.80;1.00;;;;;;;23.16;56.88;101543.94;5095998;28;20449;-72
2021/08/14 09:17:26;;;;;;;5.23;1.20;;;;;;;23.17;58.43;101542.75;5095632;28;20929;-72
2021/08/14 09:20:06;;;;;;;4.90;1.67;;;;;;;23.17;58.04;101534.47;5096141;28;20420;-73
2021/08/14 09:22:34;;;;;;;4.17;1.33;;;;;;;23.32;56.93;101541.88;5095866;28;20499;-73
2021/08/14 09:25:11;;;;;;;2.27;1.30;;;;;;;23.42;56.70;101538.53;5095584;28;20968;-73
2021/08/14 09:27:49;;;;;;;4.90;2.13;;;;;;;23.45;57.12;101536.19;5095770;28;20460;-72
2021/08/14 09:30:16;;;;;;;3.03;1.63;;;;;;;23.51;57.41;101523.69;5102654;28;20427;-73
2021/08/14 09:32:42;;;;;;;2.70;1.17;;;;;;;23.56;57.37;101526.94;5095885;28;20479;-71
2021/08/14 09:35:11;;;;;;;4.03;1.60;;;;;;;23.54;57.77;101528.47;5095771;28;20445;-72
2021/08/14 09:37:39;;;;;;;1.77;1.20;;;;;;;23.51;57.92;101532.78;5095652;28;20440;-73
2021/08/14 09:40:08;;;;;;;2.63;1.77;;;;;;;23.48;59.01;101529.94;5095605;28;20447;-73
2021/08/14 09:42:49;;;;;;;3.33;1.40;;;;;;;23.59;58.49;101536.44;5095471;28;20551;-73
2021/08/14 09:45:18;;;;;;;2.97;1.70;;;;;;;23.70;57.51;101529.19;5095202;28;20933;-73
2021/08/14 09:47:45;;;;;;;5.93;1.70;;;;;;;23.69;58.06;101527.59;5095164;28;20996;-73
2021/08/14 09:50:13;;;;;;;2.07;1.33;;;;;;;23.70;59.22;101526.44;5095437;28;20467;-73
2021/08/14 09:52:41;;;;;;;5.23;1.30;;;;;;;23.48;58.23;101527.97;5095337;28;20465;-73
2021/08/14 09:55:13;;;;;;;3.83;1.70;;;;;;;23.43;59.80;101519.97;5095311;28;20448;-73
2021/08/14 09:57:41;;;;;;;3.70;1.30;;;;;;;23.55;59.13;101519.00;5095333;28;20491;-73
2021/08/14 10:00:09;;;;;;;2.37;1.50;;;;;;;23.45;57.92;101516.81;5095188;28;20452;-73
2021/08/14 10:02:37;;;;;;;2.97;1.23;;;;;;;23.53;56.50;101513.03;5095034;28;20479;-73
2021/08/14 10:05:05;;;;;;;1.77;1.20;;;;;;;23.65;55.09;101512.91;5094947;28;20816;-73
2021/08/14 10:07:32;;;;;;;1.57;1.13;;;;;;;23.76;56.60;101502.81;5095049;28;20487;-73
2021/08/14 10:10:01;;;;;;;3.70;1.57;;;;;;;23.88;56.55;101504.59;5095063;28;20440;-73
2021/08/14 10:15:02;;;;;;;2.83;1.07;;;;;;;24.12;52.64;101503.41;5058427;22;20491;-67
2021/08/14 10:17:28;;;;;;;2.27;1.30;;;;;;;24.16;52.10;101501.50;5034369;28;20458;-68
2021/08/14 10:19:55;;;;;;;8.30;1.20;;;;;;;24.23;52.99;101501.63;5034477;28;20458;-69
2021/08/14 10:22:25;;;;;;;2.60;1.20;;;;;;;24.09;52.64;101504.16;5034363;28;20952;-68
2021/08/14 10:24:51;;;;;;;5.30;1.70;;;;;;;24.04;53.27;101491.44;5034497;28;20478;-69
2021/08/14 10:27:21;;;;;;;1.77;1.20;;;;;;;24.09;53.85;101493.88;5034409;28;20490;-67
2021/08/14 10:29:49;;;;;;;4.40;1.20;;;;;;;24.21;55.12;101487.31;5034402;28;20439;-73
2021/08/14 10:32:49;;;;;;;3.13;1.20;;;;;;;24.40;53.48;101487.28;5034464;28;20820;-71
2021/08/14 10:35:35;;;;;;;2.10;1.43;;;;;;;24.47;54.43;101478.25;4954219;29;20447;-71
2021/08/14 10:38:01;;;;;;;1.70;1.10;;;;;;;24.32;54.55;101471.69;4953434;28;20454;-70
2021/08/14 10:40:58;;;;;;;3.67;1.03;;;;;;;24.44;53.29;101476.25;4999566;28;20936;-71
2021/08/14 10:43:58;;;;;;;1.50;0.90;;;;;;;24.62;52.38;101482.03;5032669;28;20482;-71
2021/08/14 10:46:48;;;;;;;1.67;1.03;;;;;;;24.77;52.22;101477.47;5033821;28;20519;-70
2021/08/14 10:49:19;;;;;;;2.83;1.00;;;;;;;25.01;49.77;101478.94;5033877;28;20489;-71
2021/08/14 10:52:13;;;;;;;2.40;1.00;;;;;;;25.19;50.10;101476.41;5034165;28;20431;-71
2021/08/14 10:55:06;;;;;;;1.43;1.00;;;;;;;25.44;49.03;101471.94;5023894;28;20486;-71
2021/08/14 10:57:48;;;;;;;2.00;1.20;;;;;;;25.47;50.78;101465.63;5033337;28;20431;-70
2021/08/14 11:00:16;;;;;;;7.17;1.67;;;;;;;25.60;49.15;101457.81;5033354;28;20435;-69
2021/08/14 11:03:10;;;;;;;3.30;1.50;;;;;;;25.81;50.23;101457.22;5033112;28;20431;-70
2021/08/14 11:05:38;;;;;;;2.80;1.10;;;;;;;26.06;48.15;101460.97;5033489;28;20431;-70
2021/08/14 11:08:23;;;;;;;1.90;1.03;;;;;;;26.15;47.22;101450.34;5032839;28;20486;-69
2021/08/14 11:10:50;;;;;;;2.40;1.33;;;;;;;26.29;46.61;101443.28;5032899;28;20888;-70
2021/08/14 11:14:07;;;;;;;2.40;1.20;;;;;;;26.50;46.84;101446.22;5032814;28;20475;-70
2021/08/14 11:16:57;;;;;;;2.03;1.17;;;;;;;26.71;48.07;101450.28;5032414;28;20439;-70
2021/08/14 11:19:49;;;;;;;2.17;1.13;;;;;;;26.89;46.81;101440.03;5032856;28;20989;-70
2021/08/14 11:22:30;;;;;;;3.10;1.90;;;;;;;27.01;44.46;101434.13;5033038;28;20434;-70
2021/08/14 11:24:58;;;;;;;1.53;1.10;;;;;;;27.34;44.84;101438.56;5033062;28;20466;-68
2021/08/14 11:27:27;;;;;;;1.67;1.13;;;;;;;27.92;44.11;101440.19;5032846;28;20525;-70
2021/08/14 11:29:56;;;;;;;2.50;1.23;;;;;;;28.36;43.00;101436.16;5033113;28;20817;-71
2021/08/14 11:32:23;;;;;;;3.10;1.70;;;;;;;27.94;41.81;101425.09;5032962;28;20455;-69